Meath Environmental Platform

Observations for Trim Market St

Time AQI Temp °C Hum % Pres Pa CO μg/m³ H₂S μg/m³ NO μg/m³ NO₂ μg/m³ O₃ μg/m³ SO₂ μg/m³ PM1 μg/m³ PM2.5 μg/m³ PM10 μg/m³
Tuesday 14 July 2026
12:42 1 33.9 28 66,374 0 0 0 0 31.46 0 2.14 5.01 5.51
12:41 1 33.9 29 66,345 0 0 0 0 31.72 0 2.85 5.54 5.78
12:38 1 33.7 29 66,333 0 0 0 0 45.55 0 2.14 5.53 6.08
12:36 1 33.6 29 66,303 0 0 0 0 42.08 0 2.14 4.99 5.48
12:35 1 33.5 29 66,307 0 0 0 0 34.65 0 2.14 5.53 6.08
12:34 1 33.5 29 66,292 0 0 0 1.12 32.3 0 0.71 4.44 4.92
12:33 1 33.5 29 66,299 0 0 0 0 43.25 0 1.43 4.98 5.48
12:32 1 33.5 29 66,286 0 0 0 0 40.37 0 1.43 4.98 5.47
12:31 1 33.5 29 66,296 0 0 0 0 42.66 0 2.14 4.44 4.89
12:30 1 33.6 29 66,307 0 0 0 0 35.75 0 1.43 6.07 6.65
12:29 1 33.6 29 66,299 0 0 0 0 31.71 0 1.43 4.99 5.48
12:28 1 33.6 29 66,309 0 0 0 0 40.49 0 1.43 4.44 4.89
12:27 1 33.7 29 66,297 0 0 0 0 39.92 0 2.14 4.99 5.48
12:19 1 34.1 29 66,349 0 0 0 0 27.51 0 1.43 4.42 4.92
12:16 1 33.9 30 66,351 0 0 0 0 31.64 0 1.43 5.49 6.66
12:15 1 33.9 30 66,343 0 0 0 0 25.66 0 0 3.31 3.64
12:11 1 33.7 30 66,325 0 0 0 0 39.17 0 2.14 4.94 5.44
12:08 1 33.7 30 66,325 0 0 0 0 34.35 0 1.43 4.4 4.93
12:07 1 33.7 30 66,317 0 0 0 0 19.69 0 2.14 5.47 6.01
12:06 1 33.7 30 66,307 0 0 0 0 42.82 0 2.14 6.01 6.61